This is the latest recevied weather packets stored in our database for station/object KC0QBU-13. If no packets are shown the sender has not sent any weather packets the latest 10 day(s).
| Time | Temp. | Humidity | Pressure | Rain* | Wind** | Luminosity | Snow |
|---|---|---|---|---|---|---|---|
| 1777429804 | 12.78° C | 74% | 1017.2 hPa | 0 mm | - | - | - |
| 1777428303 | 12.78° C | 75% | 1016.8 hPa | 0 mm | - | - | - |
| 1777427104 | 13.33° C | 73% | 1016.3 hPa | 0 mm | - | - | - |
| 1777426803 | 13.33° C | 72% | 1016.1 hPa | 0 mm | - | - | - |
| 1777425604 | 13.89° C | 73% | 1015.9 hPa | 0 mm | - | - | - |
| 1777425304 | 13.89° C | 74% | 1015.8 hPa | 0 mm | - | - | - |
| 1777421404 | 14.44° C | 70% | 1014.7 hPa | 0 mm | - | - | - |
| 1777419004 | 14.44° C | 69% | 1014.5 hPa | 0 mm | - | - | - |
| 1777416003 | 14.44° C | 69% | 1014.6 hPa | 0 mm | - | - | - |
| 1777414503 | 13.89° C | 69% | 1014.5 hPa | 0 mm | - | - | - |
| 1777413904 | 13.89° C | 69% | 1014.6 hPa | 0 mm | - | - | - |
| 1777413603 | 13.89° C | 69% | 1014.8 hPa | 0 mm | - | - | - |
| 1777413303 | 13.89° C | 69% | 1014.8 hPa | 0 mm | - | - | - |
| 1777411204 | 14.44° C | 67% | 1014.8 hPa | 0 mm | - | - | - |
| 1777409703 | 13.89° C | 69% | 1014.8 hPa | 0 mm | - | - | - |
| 1777408803 | 13.89° C | 70% | 1015 hPa | 0 mm | - | - | - |
| 1777408504 | 13.89° C | 71% | 1015.1 hPa | 0 mm | - | - | - |
| 1777407604 | 13.33° C | 71% | 1015.9 hPa | 0 mm | - | - | - |
| 1777405204 | 12.78° C | 72% | 1015.8 hPa | 0 mm | - | - | - |
| 1777404904 | 12.78° C | 73% | 1015.9 hPa | 0 mm | - | - | - |
| 1777403703 | 12.78° C | 70% | 1015.9 hPa | 0 mm | - | - | - |
| 1777402803 | 13.33° C | 69% | 1015.9 hPa | 0 mm | - | - | - |
| 1777387804 | 10.56° C | 75% | 1019 hPa | 0 mm | - | - | - |
| 1777385403 | 10° C | 76% | 1019.8 hPa | 0 mm | - | - | - |
| 1777385104 | 10° C | 75% | 1019.8 hPa | 0 mm | - | - | - |
* Rain latest hour (hover to see other rain measurements)
** Current wind speed in m/s (hover to see current wind gust speed)